To NAV CANADA Home Page Login to a new session Search on AWWS site Disclaimer Vers la page française équivalente Tips FAQ What's new on the site To the Forecasts and Observations / NOTAM section To "File a Flight Plan" website Publications and other links Update of the User's profile FIC Telephone Numbers My Weather Data Folder Route Weather Data Regional Weather Data Local Weather Data To the Forecasts and Observations / NOTAM section
Request Generated 03/19/2019 at 23:04:55 UTC . Weather information available at that time is displayed.

METAR/TAF

GILLAM/MB    

METAR CYGX 192300Z 04014G20KT 15SM BKN035 02/M01 A2978 RMK SC7 SLP096=
METAR CYGX 192200Z 01013KT 15SM BKN035 03/M02 A2972 RMK SC7 SLP076=
LWIS CYGX 192100Z AUTO 36015KT 04/M02 A2968=

TAF CYGX 191838Z 1919/2007 30010KT P6SM SCT020 BKN040 TEMPO 1919/2001
5SM -SN BKN020
BECMG 1919/1921 35010KT
FM200100 02010KT P6SM BKN012 TEMPO 2001/2007 5SM -SN BKN008
PROB30 2004/2007 2SM -FZDZ BR BKN005
RMK NXT FCST BY 200100Z=
Your time UTC time
Weather data provided by Environment Canada and NAV CANADA